Aviation Digital Data Service (ADDS)

Output produced by METARs form (0118 UTC 16 January 2019)
found at http://www.aviationweather.gov/metar/data/
 
ENAT 160050Z AUTO 17003KT 9999 NCD M11/M13 Q0994 RMK WIND 700FT 18007KT
TAF ENAT 151700Z 1518/1523 18005KT 9999 FEW020
       
ENAN 160050Z AUTO 23011KT 9999 FEW043/// BKN059/// M03/M06 Q0992
TAF ENAN 1600/1624 23008KT 9999 SCT040 
     TEMPO 1600/1616 25018KT 1000 SHSN VV008 
     TEMPO 1600/1618 SCT015CB 
     BECMG 1615/1618 08010KT
       
ENML 160050Z AUTO 03006KT 9999NDV NCD M07/M08 Q0994
TAF ENML 151700Z 1518/1522 04007KT 9999 FEW012 BKN040
       
ENNA 160050Z AUTO 23003KT 9999 NCD M15/M16 Q0994 RMK WIND 1800FT 00000KT
TAF ENNA 1600/1624 18008KT CAVOK
       
ENDU 160050Z AUTO 00000KT 5000 -SN FEW019/// BKN046/// OVC055/// M10/M11 Q0993 RMK WIND 1100FT 31006KT WIND 2200FT 01010KT
TAF ENDU 1600/1624 VRB05KT 9999 FEW015CB SCT045 
     TEMPO 1600/1610 1400 SHSN VV007
       
ENBS 152150Z VRB02KT CAVOK M08/M11 Q0992
ENBR 160050Z VRB05KT 9999 -RA FEW006 SCT010 BKN027 03/02 Q0993 RMK WIND 1200FT 14012KT
TAF ENBR 1600/1624 14010KT 9999 FEW012 BKN025 
     BECMG 1600/1602 4000 -RA BKN012 
     PROB30 1601/1605 1500 RASN VV008 
     BECMG 1605/1607 24015KT 
     TEMPO 1605/1608 2000 RADZ BR BKN004 
     PROB30 
     TEMPO 1610/1612 2500 -RASN VV010 
     BECMG 1610/1612 35012KT 9999 FEW015TCU SCT025 
     PROB30 
     TEMPO 1620/1624 32015G25KT 1200 SHSN VV009
       
ENBO 160050Z 09012KT 5000 -SHSN VV015 M06/M08 Q0993
TAF ENBO 1600/1624 09015KT 9999 FEW008 SCT025 
     TEMPO 1600/1606 0800 SHSNGS VV006 
     TEMPO 1600/1606 SCT015CB
       
ENBL 152150Z 30002KT 7000 -SHSNRA FEW007 SCT015 BKN020 01/M01 Q0993
ENBN 160050Z AUTO 18006KT 130V220 9999NDV OVC042/// M02/M05 Q0994
TAF COR ENBN 152300Z 1600/1603 15008KT 9999 FEW015 SCT040 
     TEMPO 1600/1603 1500 SHSN VV007
       
ENEV 160050Z AUTO 01002KT 9999 FEW029/// OVC057/// M12/M13 Q0993 RMK WIND 1400FT VRB02KT
TAF ENEV 151700Z 1518/1522 VRB03KT 9999 FEW035
       
ENFL 160050Z AUTO 10010KT 9999NDV -SHRA OVC015/// 02/01 Q0991
TAF ENFL 151700Z 1518/1521 29012KT 9999 -SHRA FEW020TCU SCT030 
     BECMG 1518/1520 VRB07KT 
     PROB30 
     TEMPO 1518/1520 SHRAGS BKN018CB
       
ENHK 152120Z VRB02KT 9999 FEW025 M04/M07 Q0993
ENHD 160050Z AUTO 16007KT 9999 -RA FEW019/// SCT028/// BKN036/// 04/02 Q0993
TAF ENHD 151700Z 1518/1522 27015KT 9999 FEW020 SCT030 
     TEMPO 1518/1519 SHRAGS SCT020CB 
     BECMG 1520/1522 21010KT
       
ENKR 160050Z AUTO 16005KT 2100 -SN OVC001/// M16/M18 Q0994 RMK WIND 731FT 00000KT
TAF ENKR 152300Z 1600/1609 18005KT 8000 SCT005 
     PROB40 1600/1609 0500 FZFG BKN001
       
ENMS 152020Z 22001KT 9999 FEW050 BKN110 M10/M11 Q0994 RMK WIND 412FT 29002KT
ENCN 160050Z AUTO 00000KT 9999 BKN040/// M00/M00 Q0997
TAF ENCN 151700Z 1518/1522 VRB05KT CAVOK 
     TEMPO 1518/1520 28012KT
       
ENKB 160050Z AUTO 09004KT 060V120 9999 NCD M05/M07 Q0993 RMK WIND 745FT 13012KT
TAF ENKB 151700Z 1518/1522 VRB05KT 9999 FEW012 SCT040
       
ENOL 160050Z 12013KT 9999 FEW020 M04/M06 Q0994
TAF ENOL 1600/1624 12007KT 9999 SCT020 
     BECMG 1600/1603 12018KT 
     BECMG 1612/1614 05008KT 2000 -SN VV014 
     BECMG 1617/1619 9999 NSW FEW010 SCT050
       
ENGM 160050Z 04002KT 9999 FEW010 SCT044 M10/M11 Q0997
TAF ENGM 1600/1624 02003KT CAVOK 
     PROB40 1600/1605 0500 FZFG VV002 
     BECMG 1604/1606 3000 -SN VV008 
     TEMPO 1607/1613 0800 SN BR VV003 
     BECMG 1614/1616 2000 BR OVC003 
     BECMG 1616/1619 NSW FEW003
       
ENRO 160050Z AUTO 30002KT 0300NDV R13/0900N R31/0900N FZFG BKN001/// OVC003/// M19/M20 Q0993
ENRY 160050Z AUTO VRB02KT 9999NDV NCD M07/M08 Q0998
TAF ENRY 1600/1624 VRB05KT 9999 FEW002 
     PROB30 1600/1602 0500 FZFG VV002 
     BECMG 1604/1606 4000 -SN VV010 
     TEMPO 1606/1611 0800 SN SG BR VV002 
     PROB30 1610/1612 FZDZRA 
     BECMG 1611/1613 2000 -DZRA BR OVC002 
     BECMG 1615/1617 21010KT 9999 FEW010 BKN040 
     BECMG 1618/1620 01007KT
       
TAF ENSO 151400Z 1515/1519 29010KT 9999 -SHRA SCT012TCU BKN030 
     TEMPO 1515/1518 SHRAGS BKN020CB
       
ENSG 152120Z 23004KT 9999 SCT015 BKN040 M01/M01 Q0992 RMK WIND 3806FT 27018KT
ENSR 151920Z VRB02KT 9999 BKN035 M07/M08 Q0992 RMK WIND 1119FT 22003KT 150V240
ENZV 160050Z 15006KT 9999 -RA FEW019 SCT025 OVC041 04/02 Q0995
TAF ENZV 1600/1624 27010KT 9999 FEW015 BKN040 
     BECMG 1600/1602 15010KT -RA BKN014 
     TEMPO 1601/1610 2500 RADZ BR BKN005 
     BECMG 1604/1606 23025KT 
     BECMG 1613/1616 33018G28KT NSW SCT020
       
ENST 151950Z 04005KT 9999 FEW025 SCT040 BKN100 M05/M06 Q0993 RMK WIND 300FT 06007KT
ENSS 152050Z 29008KT CAVOK M06/M08 Q0992 RMK WIND 500FT 32005KT
ENTO 160050Z AUTO 36004KT 8000 BKN130/// M04/M04 Q0997
TAF ENTO 1600/1624 03007KT 0500 FZFG VV001 
     BECMG 1600/1602 SCT010 
     BECMG 1604/1606 4000 -SN VV010 
     TEMPO 1606/1610 0800 SN SG BR VV002 
     PROB30 1608/1611 FZDZRA 
     BECMG 1610/1612 2000 -DZRA BR OVC002 
     BECMG 1614/1616 23012KT 9999 FEW010 BKN040 
     TEMPO 1615/1618 24015G25KT 
     BECMG 1619/1621 35008KT
       
ENTC 160050Z 15001KT 9999 -SN BKN015 OVC019 M04/M04 Q0993 RMK WIND 2600FT /////KT
TAF ENTC 1600/1624 VRB05KT 9999 FEW010 SCT050 
     PROB40 1600/1606 4000 -SHSN BKN009
       
ENVA 160050Z 12009KT CAVOK M12/M14 Q0996 RMK WIND 670FT 15009KT
TAF ENVA 1600/1624 10008KT 9999 FEW015 BKN070 
     BECMG 1612/1615 4000 -SN 
     PROB40 1615/1624 1500 SN VV012
       
ENAL 160050Z AUTO 13005KT 9999 OVC030/// M01/M03 Q0992
TAF ENAL 151700Z 1518/1523 13008KT 9999 FEW012 BKN040